sensor_id;sensor_type;location;lat;lon;timestamp;pressure;altitude;pressure_sealevel;temperature;humidity
10071;BME280;5074;53.720;10.014;2022-12-18T00:00:04;102543.31;;;-6.79;100.00
10071;BME280;5074;53.720;10.014;2022-12-18T00:02:32;102530.03;;;-6.84;100.00
10071;BME280;5074;53.720;10.014;2022-12-18T00:05:01;102542.13;;;-6.71;100.00
10071;BME280;5074;53.720;10.014;2022-12-18T00:07:32;102544.63;;;-6.72;100.00
10071;BME280;5074;53.720;10.014;2022-12-18T00:10:00;102538.03;;;-6.81;100.00
10071;BME280;5074;53.720;10.014;2022-12-18T00:12:28;102540.22;;;-6.73;100.00
10071;BME280;5074;53.720;10.014;2022-12-18T00:14:56;102539.16;;;-6.77;100.00
10071;BME280;5074;53.720;10.014;2022-12-18T00:17:24;102546.66;;;-6.82;100.00
10071;BME280;5074;53.720;10.014;2022-12-18T00:19:52;102542.06;;;-6.86;100.00
10071;BME280;5074;53.720;10.014;2022-12-18T00:22:20;102538.94;;;-6.80;100.00
10071;BME280;5074;53.720;10.014;2022-12-18T00:24:49;102542.94;;;-6.85;100.00
10071;BME280;5074;53.720;10.014;2022-12-18T00:27:17;102549.34;;;-6.80;100.00
10071;BME280;5074;53.720;10.014;2022-12-18T00:29:45;102560.25;;;-6.86;100.00
10071;BME280;5074;53.720;10.014;2022-12-18T00:32:13;102558.84;;;-6.81;100.00
10071;BME280;5074;53.720;10.014;2022-12-18T00:34:41;102561.63;;;-6.77;100.00
10071;BME280;5074;53.720;10.014;2022-12-18T00:37:09;102566.22;;;-6.73;100.00
10071;BME280;5074;53.720;10.014;2022-12-18T00:39:44;102562.25;;;-6.68;100.00
10071;BME280;5074;53.720;10.014;2022-12-18T00:42:13;102563.03;;;-6.69;100.00
10071;BME280;5074;53.720;10.014;2022-12-18T00:44:58;102557.91;;;-6.68;100.00
10071;BME280;5074;53.720;10.014;2022-12-18T00:47:26;102556.22;;;-6.81;100.00
10071;BME280;5074;53.720;10.014;2022-12-18T00:49:54;102564.53;;;-6.86;100.00
10071;BME280;5074;53.720;10.014;2022-12-18T00:52:22;102569.66;;;-6.88;100.00
10071;BME280;5074;53.720;10.014;2022-12-18T00:54:50;102561.84;;;-6.88;100.00
10071;BME280;5074;53.720;10.014;2022-12-18T00:57:20;102555.25;;;-6.83;100.00
10071;BME280;5074;53.720;10.014;2022-12-18T00:59:47;102551.88;;;-6.82;100.00
10071;BME280;5074;53.720;10.014;2022-12-18T01:02:15;102549.66;;;-6.75;100.00
10071;BME280;5074;53.720;10.014;2022-12-18T01:04:44;102564.56;;;-6.73;100.00
10071;BME280;5074;53.720;10.014;2022-12-18T01:07:12;102576.63;;;-6.73;100.00
10071;BME280;5074;53.720;10.014;2022-12-18T01:09:40;102572.75;;;-6.80;100.00
10071;BME280;5074;53.720;10.014;2022-12-18T01:12:08;102578.84;;;-6.79;100.00
10071;BME280;5074;53.720;10.014;2022-12-18T01:14:37;102571.56;;;-6.99;100.00
10071;BME280;5074;53.720;10.014;2022-12-18T01:17:05;102566.88;;;-7.04;100.00
10071;BME280;5074;53.720;10.014;2022-12-18T01:19:34;102555.97;;;-6.99;100.00
10071;BME280;5074;53.720;10.014;2022-12-18T01:22:02;102553.06;;;-7.03;100.00
10071;BME280;5074;53.720;10.014;2022-12-18T01:24:30;102553.47;;;-6.97;100.00
10071;BME280;5074;53.720;10.014;2022-12-18T01:26:58;102555.06;;;-7.12;100.00
10071;BME280;5074;53.720;10.014;2022-12-18T01:29:26;102552.94;;;-7.31;100.00
10071;BME280;5074;53.720;10.014;2022-12-18T01:31:56;102560.56;;;-7.21;100.00
10071;BME280;5074;53.720;10.014;2022-12-18T01:34:24;102558.03;;;-7.20;100.00
10071;BME280;5074;53.720;10.014;2022-12-18T01:36:52;102566.25;;;-7.27;100.00
10071;BME280;5074;53.720;10.014;2022-12-18T01:39:20;102566.88;;;-7.18;100.00
10071;BME280;5074;53.720;10.014;2022-12-18T01:41:48;102564.25;;;-7.18;100.00
10071;BME280;5074;53.720;10.014;2022-12-18T01:45:00;102567.47;;;-7.08;100.00
10071;BME280;5074;53.720;10.014;2022-12-18T01:47:34;102572.06;;;-7.04;100.00
10071;BME280;5074;53.720;10.014;2022-12-18T01:50:07;102573.78;;;-7.05;100.00
10071;BME280;5074;53.720;10.014;2022-12-18T01:52:36;102581.03;;;-7.12;100.00
10071;BME280;5074;53.720;10.014;2022-12-18T01:55:07;102588.75;;;-7.14;100.00
10071;BME280;5074;53.720;10.014;2022-12-18T01:57:36;102591.63;;;-7.09;100.00
10071;BME280;5074;53.720;10.014;2022-12-18T02:00:07;102582.47;;;-7.18;100.00
10071;BME280;5074;53.720;10.014;2022-12-18T02:02:37;102595.03;;;-7.24;100.00
10071;BME280;5074;53.720;10.014;2022-12-18T02:05:07;102591.16;;;-7.17;100.00
10071;BME280;5074;53.720;10.014;2022-12-18T02:07:55;102592.53;;;-7.22;100.00
10071;BME280;5074;53.720;10.014;2022-12-18T02:10:37;102583.84;;;-7.09;100.00
10071;BME280;5074;53.720;10.014;2022-12-18T02:13:12;102576.84;;;-7.24;100.00
10071;BME280;5074;53.720;10.014;2022-12-18T02:15:49;102588.53;;;-7.17;100.00
10071;BME280;5074;53.720;10.014;2022-12-18T02:18:22;102589.63;;;-7.13;100.00
10071;BME280;5074;53.720;10.014;2022-12-18T02:20:55;102598.22;;;-7.28;100.00
10071;BME280;5074;53.720;10.014;2022-12-18T02:23:41;102608.41;;;-7.31;100.00
10071;BME280;5074;53.720;10.014;2022-12-18T02:26:26;102608.41;;;-7.31;100.00
10071;BME280;5074;53.720;10.014;2022-12-18T02:29:01;102605.41;;;-7.24;100.00
10071;BME280;5074;53.720;10.014;2022-12-18T02:31:33;102610.31;;;-7.28;100.00
10071;BME280;5074;53.720;10.014;2022-12-18T02:34:04;102615.41;;;-7.17;100.00
10071;BME280;5074;53.720;10.014;2022-12-18T02:36:36;102584.03;;;-7.33;100.00
10071;BME280;5074;53.720;10.014;2022-12-18T02:39:08;102607.53;;;-7.18;100.00
10071;BME280;5074;53.720;10.014;2022-12-18T02:41:38;102601.84;;;-7.26;100.00
10071;BME280;5074;53.720;10.014;2022-12-18T02:44:09;102587.69;;;-7.56;100.00
10071;BME280;5074;53.720;10.014;2022-12-18T02:46:40;102607.72;;;-7.67;100.00
10071;BME280;5074;53.720;10.014;2022-12-18T02:49:20;102615.63;;;-7.91;100.00
10071;BME280;5074;53.720;10.014;2022-12-18T02:51:52;102617.22;;;-7.93;100.00
10071;BME280;5074;53.720;10.014;2022-12-18T02:54:40;102614.53;;;-7.94;100.00
10071;BME280;5074;53.720;10.014;2022-12-18T02:57:19;102612.88;;;-8.17;100.00
10071;BME280;5074;53.720;10.014;2022-12-18T02:59:57;102622.91;;;-8.10;100.00
10071;BME280;5074;53.720;10.014;2022-12-18T03:02:30;102618.00;;;-7.94;100.00
10071;BME280;5074;53.720;10.014;2022-12-18T03:05:07;102618.78;;;-7.95;100.00
10071;BME280;5074;53.720;10.014;2022-12-18T03:07:41;102621.91;;;-7.87;100.00
10071;BME280;5074;53.720;10.014;2022-12-18T03:10:13;102621.28;;;-7.96;100.00
10071;BME280;5074;53.720;10.014;2022-12-18T03:12:47;102621.81;;;-7.89;100.00
10071;BME280;5074;53.720;10.014;2022-12-18T03:15:20;102625.00;;;-7.68;100.00
10071;BME280;5074;53.720;10.014;2022-12-18T03:17:52;102614.91;;;-7.63;100.00
10071;BME280;5074;53.720;10.014;2022-12-18T03:20:25;102614.44;;;-7.57;100.00
10071;BME280;5074;53.720;10.014;2022-12-18T03:22:58;102611.22;;;-7.66;100.00
10071;BME280;5074;53.720;10.014;2022-12-18T03:25:27;102631.88;;;-7.93;100.00
10071;BME280;5074;53.720;10.014;2022-12-18T03:28:01;102629.19;;;-7.95;100.00
10071;BME280;5074;53.720;10.014;2022-12-18T03:30:33;102623.03;;;-7.83;100.00
10071;BME280;5074;53.720;10.014;2022-12-18T03:33:09;102624.50;;;-7.87;100.00
10071;BME280;5074;53.720;10.014;2022-12-18T03:35:40;102629.59;;;-7.89;100.00
10071;BME280;5074;53.720;10.014;2022-12-18T03:38:09;102621.16;;;-7.73;100.00
10071;BME280;5074;53.720;10.014;2022-12-18T03:40:45;102621.69;;;-7.78;100.00
10071;BME280;5074;53.720;10.014;2022-12-18T03:43:20;102622.88;;;-7.73;100.00
10071;BME280;5074;53.720;10.014;2022-12-18T03:45:58;102622.66;;;-7.76;100.00
10071;BME280;5074;53.720;10.014;2022-12-18T03:48:31;102624.03;;;-7.81;100.00
10071;BME280;5074;53.720;10.014;2022-12-18T03:51:05;102624.59;;;-7.74;100.00
10071;BME280;5074;53.720;10.014;2022-12-18T03:53:37;102618.84;;;-7.81;100.00
10071;BME280;5074;53.720;10.014;2022-12-18T03:56:07;102612.97;;;-7.79;100.00
10071;BME280;5074;53.720;10.014;2022-12-18T03:58:40;102619.09;;;-7.78;100.00
10071;BME280;5074;53.720;10.014;2022-12-18T04:01:12;102612.97;;;-7.79;100.00
10071;BME280;5074;53.720;10.014;2022-12-18T04:03:42;102618.31;;;-7.89;100.00
10071;BME280;5074;53.720;10.014;2022-12-18T04:06:13;102607.47;;;-7.83;100.00
10071;BME280;5074;53.720;10.014;2022-12-18T04:08:43;102613.88;;;-7.78;100.00
10071;BME280;5074;53.720;10.014;2022-12-18T04:11:11;102628.91;;;-7.86;100.00
10071;BME280;5074;53.720;10.014;2022-12-18T04:13:42;102614.47;;;-7.82;100.00
10071;BME280;5074;53.720;10.014;2022-12-18T04:16:10;102619.75;;;-7.81;100.00
10071;BME280;5074;53.720;10.014;2022-12-18T04:18:38;102607.88;;;-7.77;100.00
10071;BME280;5074;53.720;10.014;2022-12-18T04:21:06;102605.28;;;-7.77;100.00
10071;BME280;5074;53.720;10.014;2022-12-18T04:23:34;102614.00;;;-7.77;100.00
10071;BME280;5074;53.720;10.014;2022-12-18T04:26:03;102615.78;;;-7.76;100.00
10071;BME280;5074;53.720;10.014;2022-12-18T04:28:31;102616.97;;;-7.84;100.00
10071;BME280;5074;53.720;10.014;2022-12-18T04:31:00;102617.63;;;-7.87;100.00
10071;BME280;5074;53.720;10.014;2022-12-18T04:33:29;102627.59;;;-7.93;100.00
10071;BME280;5074;53.720;10.014;2022-12-18T04:35:57;102622.16;;;-7.84;100.00
10071;BME280;5074;53.720;10.014;2022-12-18T04:38:25;102623.72;;;-7.86;100.00
10071;BME280;5074;53.720;10.014;2022-12-18T04:40:53;102622.06;;;-7.97;100.00
10071;BME280;5074;53.720;10.014;2022-12-18T04:43:21;102618.00;;;-7.94;100.00
10071;BME280;5074;53.720;10.014;2022-12-18T04:45:49;102612.59;;;-7.97;100.00
10071;BME280;5074;53.720;10.014;2022-12-18T04:48:19;102613.50;;;-7.96;100.00
10071;BME280;5074;53.720;10.014;2022-12-18T04:50:47;102613.06;;;-8.03;100.00
10071;BME280;5074;53.720;10.014;2022-12-18T04:53:15;102607.53;;;-7.95;100.00
10071;BME280;5074;53.720;10.014;2022-12-18T04:55:43;102617.44;;;-7.90;100.00
10071;BME280;5074;53.720;10.014;2022-12-18T04:58:11;102622.16;;;-7.84;100.00
10071;BME280;5074;53.720;10.014;2022-12-18T05:00:39;102635.25;;;-7.82;100.00
10071;BME280;5074;53.720;10.014;2022-12-18T05:03:07;102636.34;;;-7.79;100.00
10071;BME280;5074;53.720;10.014;2022-12-18T05:05:37;102645.94;;;-7.78;100.00
10071;BME280;5074;53.720;10.014;2022-12-18T05:08:05;102649.91;;;-7.83;100.00
10071;BME280;5074;53.720;10.014;2022-12-18T05:10:32;102657.16;;;-7.91;100.00
10071;BME280;5074;53.720;10.014;2022-12-18T05:13:04;102651.75;;;-7.94;100.00
10071;BME280;5074;53.720;10.014;2022-12-18T05:15:32;102660.38;;;-8.07;100.00
10071;BME280;5074;53.720;10.014;2022-12-18T05:18:01;102650.97;;;-8.05;100.00
10071;BME280;5074;53.720;10.014;2022-12-18T05:20:30;102654.03;;;-7.98;100.00
10071;BME280;5074;53.720;10.014;2022-12-18T05:22:59;102649.16;;;-7.94;100.00
10071;BME280;5074;53.720;10.014;2022-12-18T05:25:28;102654.34;;;-7.94;100.00
10071;BME280;5074;53.720;10.014;2022-12-18T05:27:56;102658.41;;;-7.97;100.00
10071;BME280;5074;53.720;10.014;2022-12-18T05:30:25;102654.13;;;-7.97;100.00
10071;BME280;5074;53.720;10.014;2022-12-18T05:32:54;102642.31;;;-8.05;100.00
10071;BME280;5074;53.720;10.014;2022-12-18T05:35:22;102655.56;;;-7.89;100.00
10071;BME280;5074;53.720;10.014;2022-12-18T05:37:50;102656.06;;;-7.94;100.00
10071;BME280;5074;53.720;10.014;2022-12-18T05:40:19;102660.44;;;-7.93;100.00
10071;BME280;5074;53.720;10.014;2022-12-18T05:42:47;102660.66;;;-7.90;100.00
10071;BME280;5074;53.720;10.014;2022-12-18T05:45:15;102663.13;;;-7.92;100.00
10071;BME280;5074;53.720;10.014;2022-12-18T05:47:44;102670.25;;;-7.89;100.00
10071;BME280;5074;53.720;10.014;2022-12-18T05:50:12;102666.53;;;-7.93;100.00
10071;BME280;5074;53.720;10.014;2022-12-18T05:52:40;102665.63;;;-7.93;100.00
10071;BME280;5074;53.720;10.014;2022-12-18T05:55:08;102663.38;;;-8.00;100.00
10071;BME280;5074;53.720;10.014;2022-12-18T05:57:37;102668.38;;;-8.04;100.00
10071;BME280;5074;53.720;10.014;2022-12-18T06:00:06;102670.84;;;-8.05;100.00
10071;BME280;5074;53.720;10.014;2022-12-18T06:02:34;102672.31;;;-7.97;100.00
10071;BME280;5074;53.720;10.014;2022-12-18T06:05:03;102672.25;;;-7.85;100.00
10071;BME280;5074;53.720;10.014;2022-12-18T06:07:31;102676.69;;;-7.96;100.00
10071;BME280;5074;53.720;10.014;2022-12-18T06:09:59;102675.91;;;-7.95;100.00
10071;BME280;5074;53.720;10.014;2022-12-18T06:12:27;102679.16;;;-7.97;100.00
10071;BME280;5074;53.720;10.014;2022-12-18T06:14:57;102675.69;;;-7.98;100.00
10071;BME280;5074;53.720;10.014;2022-12-18T06:17:27;102675.59;;;-7.99;100.00
10071;BME280;5074;53.720;10.014;2022-12-18T06:19:55;102684.03;;;-8.02;100.00
10071;BME280;5074;53.720;10.014;2022-12-18T06:22:23;102683.16;;;-8.03;100.00
10071;BME280;5074;53.720;10.014;2022-12-18T06:24:51;102681.59;;;-8.12;100.00
10071;BME280;5074;53.720;10.014;2022-12-18T06:27:20;102676.28;;;-8.14;100.00
10071;BME280;5074;53.720;10.014;2022-12-18T06:29:48;102679.88;;;-8.12;100.00
10071;BME280;5074;53.720;10.014;2022-12-18T06:32:17;102692.63;;;-8.03;100.00
10071;BME280;5074;53.720;10.014;2022-12-18T06:34:45;102687.56;;;-8.13;100.00
10071;BME280;5074;53.720;10.014;2022-12-18T06:37:13;102692.09;;;-8.23;100.00
10071;BME280;5074;53.720;10.014;2022-12-18T06:39:41;102695.34;;;-8.13;100.00
10071;BME280;5074;53.720;10.014;2022-12-18T06:42:09;102689.28;;;-8.26;100.00
10071;BME280;5074;53.720;10.014;2022-12-18T06:44:37;102684.31;;;-8.23;100.00
10071;BME280;5074;53.720;10.014;2022-12-18T06:47:05;102686.81;;;-8.24;100.00
10071;BME280;5074;53.720;10.014;2022-12-18T06:49:34;102688.16;;;-8.29;100.00
10071;BME280;5074;53.720;10.014;2022-12-18T06:52:03;102690.88;;;-8.16;100.00
10071;BME280;5074;53.720;10.014;2022-12-18T06:54:31;102690.19;;;-8.25;100.00
10071;BME280;5074;53.720;10.014;2022-12-18T06:56:59;102694.34;;;-8.15;100.00
10071;BME280;5074;53.720;10.014;2022-12-18T06:59:27;102693.44;;;-8.28;100.00
10071;BME280;5074;53.720;10.014;2022-12-18T07:01:55;102694.00;;;-8.32;100.00
10071;BME280;5074;53.720;10.014;2022-12-18T07:04:27;102690.53;;;-8.32;100.00
10071;BME280;5074;53.720;10.014;2022-12-18T07:06:57;102697.31;;;-8.34;100.00
10071;BME280;5074;53.720;10.014;2022-12-18T07:09:25;102689.44;;;-8.36;100.00
10071;BME280;5074;53.720;10.014;2022-12-18T07:11:55;102702.16;;;-8.39;100.00
10071;BME280;5074;53.720;10.014;2022-12-18T07:14:23;102698.19;;;-8.22;100.00
10071;BME280;5074;53.720;10.014;2022-12-18T07:16:51;102702.00;;;-7.43;100.00
10071;BME280;5074;53.720;10.014;2022-12-18T07:19:19;102710.59;;;-7.44;100.00
10071;BME280;5074;53.720;10.014;2022-12-18T07:21:47;102710.84;;;-7.78;100.00
10071;BME280;5074;53.720;10.014;2022-12-18T07:24:18;102706.09;;;-7.46;100.00
10071;BME280;5074;53.720;10.014;2022-12-18T07:26:46;102704.34;;;-7.59;100.00
10071;BME280;5074;53.720;10.014;2022-12-18T07:29:15;102698.59;;;-7.67;100.00
10071;BME280;5074;53.720;10.014;2022-12-18T07:31:43;102710.38;;;-7.72;100.00
10071;BME280;5074;53.720;10.014;2022-12-18T07:34:12;102722.78;;;-7.43;100.00
10071;BME280;5074;53.720;10.014;2022-12-18T07:36:40;102714.78;;;-7.21;100.00
10071;BME280;5074;53.720;10.014;2022-12-18T07:39:10;102719.03;;;-7.35;100.00
10071;BME280;5074;53.720;10.014;2022-12-18T07:41:39;102716.41;;;-7.09;100.00
10071;BME280;5074;53.720;10.014;2022-12-18T07:44:13;102727.47;;;-7.25;100.00
10071;BME280;5074;53.720;10.014;2022-12-18T07:46:41;102733.22;;;-7.29;100.00
10071;BME280;5074;53.720;10.014;2022-12-18T07:49:09;102729.03;;;-7.41;100.00
10071;BME280;5074;53.720;10.014;2022-12-18T07:51:37;102735.22;;;-7.39;100.00
10071;BME280;5074;53.720;10.014;2022-12-18T07:54:05;102735.09;;;-7.15;100.00
10071;BME280;5074;53.720;10.014;2022-12-18T07:56:33;102738.28;;;-7.44;100.00
10071;BME280;5074;53.720;10.014;2022-12-18T07:59:05;102732.59;;;-7.64;100.00
10071;BME280;5074;53.720;10.014;2022-12-18T08:01:33;102731.84;;;-7.75;100.00
10071;BME280;5074;53.720;10.014;2022-12-18T08:04:02;102753.06;;;-7.80;100.00
10071;BME280;5074;53.720;10.014;2022-12-18T08:06:30;102749.59;;;-7.81;100.00
10071;BME280;5074;53.720;10.014;2022-12-18T08:08:58;102749.00;;;-7.77;100.00
10071;BME280;5074;53.720;10.014;2022-12-18T08:11:27;102745.06;;;-7.83;100.00
10071;BME280;5074;53.720;10.014;2022-12-18T08:13:55;102741.91;;;-7.79;100.00
10071;BME280;5074;53.720;10.014;2022-12-18T08:16:25;102725.53;;;-7.78;100.00
10071;BME280;5074;53.720;10.014;2022-12-18T08:18:54;102726.22;;;-7.81;100.00
10071;BME280;5074;53.720;10.014;2022-12-18T08:21:24;102727.47;;;-7.88;100.00
10071;BME280;5074;53.720;10.014;2022-12-18T08:23:54;102725.22;;;-7.95;100.00
10071;BME280;5074;53.720;10.014;2022-12-18T08:26:23;102725.06;;;-7.85;100.00
10071;BME280;5074;53.720;10.014;2022-12-18T08:28:53;102728.13;;;-7.78;100.00
10071;BME280;5074;53.720;10.014;2022-12-18T08:31:22;102725.03;;;-7.73;100.00
10071;BME280;5074;53.720;10.014;2022-12-18T08:33:52;102726.97;;;-7.70;100.00
10071;BME280;5074;53.720;10.014;2022-12-18T08:36:21;102721.50;;;-7.61;100.00
10071;BME280;5074;53.720;10.014;2022-12-18T08:38:51;102720.25;;;-7.55;100.00
10071;BME280;5074;53.720;10.014;2022-12-18T08:41:19;102723.28;;;-7.48;100.00
10071;BME280;5074;53.720;10.014;2022-12-18T08:43:47;102725.28;;;-7.44;100.00
10071;BME280;5074;53.720;10.014;2022-12-18T08:46:35;102723.28;;;-7.48;100.00
10071;BME280;5074;53.720;10.014;2022-12-18T08:49:05;102725.09;;;-7.47;100.00
10071;BME280;5074;53.720;10.014;2022-12-18T08:51:34;102727.50;;;-7.37;100.00
10071;BME280;5074;53.720;10.014;2022-12-18T08:54:03;102726.34;;;-7.29;100.00
10071;BME280;5074;53.720;10.014;2022-12-18T08:56:32;102731.88;;;-7.24;100.00
10071;BME280;5074;53.720;10.014;2022-12-18T08:59:01;102724.19;;;-7.23;100.00
10071;BME280;5074;53.720;10.014;2022-12-18T09:01:29;102725.88;;;-7.23;100.00
10071;BME280;5074;53.720;10.014;2022-12-18T09:03:58;102729.88;;;-7.15;100.00
10071;BME280;5074;53.720;10.014;2022-12-18T09:06:28;102729.09;;;-7.14;100.00
10071;BME280;5074;53.720;10.014;2022-12-18T09:08:56;102726.03;;;-7.08;100.00
10071;BME280;5074;53.720;10.014;2022-12-18T09:11:26;102731.53;;;-7.04;100.00
10071;BME280;5074;53.720;10.014;2022-12-18T09:13:55;102735.34;;;-6.99;100.00
10071;BME280;5074;53.720;10.014;2022-12-18T09:16:25;102727.66;;;-6.97;100.00
10071;BME280;5074;53.720;10.014;2022-12-18T09:18:59;102725.56;;;-6.89;100.00
10071;BME280;5074;53.720;10.014;2022-12-18T09:21:30;102728.56;;;-6.83;100.00
10071;BME280;5074;53.720;10.014;2022-12-18T09:24:03;102727.09;;;-6.79;100.00
10071;BME280;5074;53.720;10.014;2022-12-18T09:26:34;102717.19;;;-6.72;100.00
10071;BME280;5074;53.720;10.014;2022-12-18T09:29:03;102726.31;;;-6.65;100.00
10071;BME280;5074;53.720;10.014;2022-12-18T09:31:31;102718.59;;;-6.64;100.00
10071;BME280;5074;53.720;10.014;2022-12-18T09:33:59;102726.81;;;-6.57;100.00
10071;BME280;5074;53.720;10.014;2022-12-18T09:36:28;102719.31;;;-6.53;100.00
10071;BME280;5074;53.720;10.014;2022-12-18T09:38:56;102716.53;;;-6.42;100.00
10071;BME280;5074;53.720;10.014;2022-12-18T09:41:44;102722.03;;;-6.38;100.00
10071;BME280;5074;53.720;10.014;2022-12-18T09:44:18;102728.81;;;-6.26;100.00
10071;BME280;5074;53.720;10.014;2022-12-18T09:46:53;102725.72;;;-6.21;100.00
10071;BME280;5074;53.720;10.014;2022-12-18T09:49:25;102719.28;;;-6.13;100.00
10071;BME280;5074;53.720;10.014;2022-12-18T09:52:04;102727.19;;;-6.11;100.00
10071;BME280;5074;53.720;10.014;2022-12-18T09:54:46;102734.22;;;-6.10;100.00
10071;BME280;5074;53.720;10.014;2022-12-18T09:57:18;102723.38;;;-6.03;100.00
10071;BME280;5074;53.720;10.014;2022-12-18T09:59:50;102732.44;;;-5.83;100.00
10071;BME280;5074;53.720;10.014;2022-12-18T10:02:22;102736.25;;;-5.78;100.00
10071;BME280;5074;53.720;10.014;2022-12-18T10:05:01;102722.38;;;-5.77;100.00
10071;BME280;5074;53.720;10.014;2022-12-18T10:07:38;102729.88;;;-5.68;100.00
10071;BME280;5074;53.720;10.014;2022-12-18T10:10:18;102727.97;;;-5.57;100.00
10071;BME280;5074;53.720;10.014;2022-12-18T10:12:56;102720.31;;;-5.54;100.00
10071;BME280;5074;53.720;10.014;2022-12-18T10:15:34;102707.66;;;-5.48;100.00
10071;BME280;5074;53.720;10.014;2022-12-18T10:18:19;102712.63;;;-5.37;100.00
10071;BME280;5074;53.720;10.014;2022-12-18T10:20:52;102723.38;;;-5.33;100.00
10071;BME280;5074;53.720;10.014;2022-12-18T10:23:26;102730.34;;;-5.32;100.00
10071;BME280;5074;53.720;10.014;2022-12-18T10:26:02;102741.97;;;-5.27;100.00
10071;BME280;5074;53.720;10.014;2022-12-18T10:28:32;102736.06;;;-5.24;100.00
10071;BME280;5074;53.720;10.014;2022-12-18T10:31:00;102733.44;;;-5.24;100.00
10071;BME280;5074;53.720;10.014;2022-12-18T10:33:30;102741.72;;;-5.16;100.00
10071;BME280;5074;53.720;10.014;2022-12-18T10:35:59;102726.97;;;-5.16;100.00
10071;BME280;5074;53.720;10.014;2022-12-18T10:38:30;102727.53;;;-5.07;100.00
10071;BME280;5074;53.720;10.014;2022-12-18T10:41:00;102732.06;;;-5.04;100.00
10071;BME280;5074;53.720;10.014;2022-12-18T10:43:30;102727.19;;;-4.98;100.00
10071;BME280;5074;53.720;10.014;2022-12-18T10:46:12;102726.84;;;-4.89;100.00
10071;BME280;5074;53.720;10.014;2022-12-18T10:48:52;102721.97;;;-4.83;100.00
10071;BME280;5074;53.720;10.014;2022-12-18T10:51:23;102713.06;;;-4.72;100.00
10071;BME280;5074;53.720;10.014;2022-12-18T10:53:56;102712.53;;;-4.66;100.00
10071;BME280;5074;53.720;10.014;2022-12-18T10:56:26;102710.28;;;-4.60;100.00
10071;BME280;5074;53.720;10.014;2022-12-18T10:58:57;102721.53;;;-4.46;100.00
10071;BME280;5074;53.720;10.014;2022-12-18T11:01:26;102714.84;;;-4.41;100.00
10071;BME280;5074;53.720;10.014;2022-12-18T11:04:00;102709.16;;;-4.33;100.00
10071;BME280;5074;53.720;10.014;2022-12-18T11:06:29;102710.31;;;-4.28;100.00
10071;BME280;5074;53.720;10.014;2022-12-18T11:09:00;102711.59;;;-4.22;100.00
10071;BME280;5074;53.720;10.014;2022-12-18T11:11:35;102714.38;;;-4.19;100.00
10071;BME280;5074;53.720;10.014;2022-12-18T11:14:04;102715.66;;;-4.10;100.00
10071;BME280;5074;53.720;10.014;2022-12-18T11:16:35;102705.50;;;-4.06;100.00
10071;BME280;5074;53.720;10.014;2022-12-18T11:19:19;102703.13;;;-4.01;100.00
10071;BME280;5074;53.720;10.014;2022-12-18T11:21:49;102701.56;;;-3.97;100.00
10071;BME280;5074;53.720;10.014;2022-12-18T11:24:30;102695.94;;;-4.05;100.00
10071;BME280;5074;53.720;10.014;2022-12-18T11:27:00;102706.81;;;-3.97;100.00
10071;BME280;5074;53.720;10.014;2022-12-18T11:29:33;102705.34;;;-3.92;100.00
10071;BME280;5074;53.720;10.014;2022-12-18T11:32:22;102695.88;;;-3.90;100.00
10071;BME280;5074;53.720;10.014;2022-12-18T11:34:57;102696.16;;;-3.86;100.00
10071;BME280;5074;53.720;10.014;2022-12-18T11:37:28;102696.56;;;-3.78;100.00
10071;BME280;5074;53.720;10.014;2022-12-18T11:40:00;102693.31;;;-3.74;100.00
10071;BME280;5074;53.720;10.014;2022-12-18T11:42:36;102688.47;;;-3.82;100.00
10071;BME280;5074;53.720;10.014;2022-12-18T11:45:24;102687.91;;;-3.77;100.00
10071;BME280;5074;53.720;10.014;2022-12-18T11:47:57;102682.69;;;-3.77;100.00
10071;BME280;5074;53.720;10.014;2022-12-18T11:50:31;102678.34;;;-3.76;100.00
10071;BME280;5074;53.720;10.014;2022-12-18T11:53:01;102668.69;;;-3.77;100.00
10071;BME280;5074;53.720;10.014;2022-12-18T11:55:39;102666.25;;;-3.74;100.00
10071;BME280;5074;53.720;10.014;2022-12-18T11:58:14;102670.66;;;-3.73;100.00
10071;BME280;5074;53.720;10.014;2022-12-18T12:00:54;102669.78;;;-3.74;100.00
10071;BME280;5074;53.720;10.014;2022-12-18T12:03:39;102669.78;;;-3.74;100.00
10071;BME280;5074;53.720;10.014;2022-12-18T12:06:20;102663.84;;;-3.71;100.00
10071;BME280;5074;53.720;10.014;2022-12-18T12:08:59;102664.78;;;-3.69;100.00
10071;BME280;5074;53.720;10.014;2022-12-18T12:11:43;102649.91;;;-3.70;100.00
10071;BME280;5074;53.720;10.014;2022-12-18T12:14:27;102646.75;;;-3.64;100.00
10071;BME280;5074;53.720;10.014;2022-12-18T12:17:05;102637.00;;;-3.67;100.00
10071;BME280;5074;53.720;10.014;2022-12-18T12:19:46;102636.47;;;-3.78;100.00
10071;BME280;5074;53.720;10.014;2022-12-18T12:22:24;102640.13;;;-3.74;100.00
10071;BME280;5074;53.720;10.014;2022-12-18T12:25:07;102636.38;;;-3.79;100.00
10071;BME280;5074;53.720;10.014;2022-12-18T12:27:51;102628.84;;;-3.73;100.00
10071;BME280;5074;53.720;10.014;2022-12-18T12:30:21;102625.28;;;-3.75;100.00
10071;BME280;5074;53.720;10.014;2022-12-18T12:33:01;102615.72;;;-3.75;100.00
10071;BME280;5074;53.720;10.014;2022-12-18T12:35:41;102613.75;;;-3.79;100.00
10071;BME280;5074;53.720;10.014;2022-12-18T12:38:14;102614.91;;;-3.74;100.00
10071;BME280;5074;53.720;10.014;2022-12-18T12:40:46;102608.84;;;-3.73;100.00
10071;BME280;5074;53.720;10.014;2022-12-18T12:43:33;102593.56;;;-3.65;100.00
10071;BME280;5074;53.720;10.014;2022-12-18T12:46:05;102582.03;;;-3.69;100.00
10071;BME280;5074;53.720;10.014;2022-12-18T12:48:43;102569.13;;;-3.66;100.00
10071;BME280;5074;53.720;10.014;2022-12-18T12:51:17;102572.91;;;-3.60;100.00
10071;BME280;5074;53.720;10.014;2022-12-18T12:53:48;102570.44;;;-3.57;100.00
10071;BME280;5074;53.720;10.014;2022-12-18T12:56:17;102565.06;;;-3.60;100.00
10071;BME280;5074;53.720;10.014;2022-12-18T12:58:58;102561.88;;;-3.55;100.00
10071;BME280;5074;53.720;10.014;2022-12-18T13:01:36;102562.16;;;-3.49;100.00